createdAt,value
2018-01-12T00:01:31.223Z,59.27
2018-01-12T00:03:59.501Z,66.80
2018-01-12T00:06:27.771Z,61.47
2018-01-12T00:08:56.276Z,65.10
2018-01-12T00:11:24.515Z,63.90
2018-01-12T00:13:52.778Z,73.70
2018-01-12T00:16:21.038Z,66.73
2018-01-12T00:18:49.331Z,75.20
2018-01-12T00:21:17.666Z,73.13
2018-01-12T00:23:46.703Z,81.23
2018-01-12T00:26:14.958Z,70.27
2018-01-12T00:28:43.217Z,70.40
2018-01-12T00:31:11.479Z,80.43
2018-01-12T00:33:39.807Z,73.67
2018-01-12T00:36:08.069Z,72.97
2018-01-12T00:38:36.320Z,70.53
2018-01-12T00:41:04.649Z,82.50
2018-01-12T00:43:32.864Z,75.10
2018-01-12T00:46:01.195Z,76.40
2018-01-12T00:48:29.449Z,79.43
2018-01-12T00:50:57.710Z,76.63
2018-01-12T00:53:25.999Z,80.03
2018-01-12T00:55:54.403Z,78.00
2018-01-12T00:58:22.667Z,73.33
2018-01-12T01:00:51.177Z,71.20
2018-01-12T01:03:19.459Z,69.37
2018-01-12T01:05:48.496Z,73.63
2018-01-12T01:08:16.737Z,70.70
2018-01-12T01:10:45.013Z,71.13
2018-01-12T01:13:13.281Z,64.67
2018-01-12T01:15:42.348Z,70.00
2018-01-12T01:18:10.691Z,71.00
2018-01-12T01:20:38.986Z,62.67
2018-01-12T01:23:07.239Z,70.00
2018-01-12T01:25:35.517Z,74.10
2018-01-12T01:28:03.774Z,75.13
2018-01-12T01:30:32.072Z,85.37
2018-01-12T01:33:00.383Z,85.77
2018-01-12T01:35:28.814Z,110.63
2018-01-12T01:37:57.090Z,107.10
2018-01-12T01:40:25.388Z,116.53
2018-01-12T01:42:53.738Z,95.93
2018-01-12T01:45:22.105Z,111.10
2018-01-12T01:47:50.365Z,106.37
2018-01-12T01:50:18.662Z,119.57
2018-01-12T01:52:46.903Z,114.20
2018-01-12T01:55:15.943Z,121.50
2018-01-12T01:57:44.214Z,119.33
2018-01-12T02:00:12.492Z,93.67
2018-01-12T02:02:40.742Z,97.10
2018-01-12T02:05:09.021Z,91.63
2018-01-12T02:07:37.275Z,90.70
2018-01-12T02:10:06.303Z,94.33
2018-01-12T02:12:34.598Z,84.67
2018-01-12T02:15:02.818Z,94.23
2018-01-12T02:17:31.849Z,105.57
2018-01-12T02:20:00.136Z,100.33
2018-01-12T02:22:28.410Z,100.87
2018-01-12T02:24:56.681Z,106.10
2018-01-12T02:27:24.975Z,91.77
2018-01-12T02:29:53.247Z,92.97
2018-01-12T02:32:21.592Z,84.83
2018-01-12T02:34:49.879Z,92.50
2018-01-12T02:37:18.126Z,84.83
2018-01-12T02:39:46.426Z,99.83
2018-01-12T02:42:14.679Z,82.13
2018-01-12T02:44:42.994Z,93.47
2018-01-12T02:47:11.343Z,85.90
2018-01-12T02:49:39.590Z,86.03
2018-01-12T02:52:07.885Z,106.77
2018-01-12T02:54:36.159Z,94.53
2018-01-12T02:57:04.412Z,127.23
2018-01-12T02:59:32.683Z,132.77
2018-01-12T03:02:01.719Z,103.60
2018-01-12T03:04:30.006Z,115.60
2018-01-12T03:06:58.294Z,113.97
2018-01-12T03:09:26.547Z,127.77
2018-01-12T03:11:54.819Z,119.30
2018-01-12T03:14:23.075Z,152.03
2018-01-12T03:16:51.374Z,110.83
2018-01-12T03:19:19.625Z,92.97
2018-01-12T03:21:47.910Z,101.43
2018-01-12T03:24:17.043Z,114.50
2018-01-12T03:26:45.319Z,129.07
2018-01-12T03:29:13.567Z,115.87
2018-01-12T03:31:41.991Z,105.40
2018-01-12T03:34:11.020Z,125.13
2018-01-12T03:36:39.276Z,122.60
2018-01-12T03:39:07.550Z,103.47
2018-01-12T03:41:35.868Z,113.73
2018-01-12T03:44:04.140Z,112.80
2018-01-12T03:46:32.415Z,119.20
2018-01-12T03:49:00.729Z,114.03
2018-01-12T03:51:29.741Z,112.20
2018-01-12T03:53:58.184Z,134.43
2018-01-12T03:56:26.452Z,130.10
2018-01-12T03:58:54.752Z,133.03
2018-01-12T04:01:24.612Z,117.30
2018-01-12T04:03:53.021Z,148.27
2018-01-12T04:06:21.299Z,143.50
2018-01-12T04:08:49.560Z,150.07
2018-01-12T04:11:17.867Z,140.20
2018-01-12T04:13:46.898Z,128.10
2018-01-12T04:16:15.238Z,140.40
2018-01-12T04:18:44.266Z,158.60
2018-01-12T04:21:12.534Z,143.37
2018-01-12T04:23:40.967Z,127.40
2018-01-12T04:26:10.064Z,129.93
2018-01-12T04:28:38.321Z,161.47
2018-01-12T04:31:06.671Z,127.07
2018-01-12T04:33:34.930Z,182.30
2018-01-12T04:36:03.234Z,154.23
2018-01-12T04:38:31.546Z,163.37
2018-01-12T04:40:59.822Z,121.70
2018-01-12T04:43:28.074Z,136.90
2018-01-12T04:45:56.398Z,139.83
2018-01-12T04:48:24.662Z,149.23
2018-01-12T04:50:52.955Z,133.67
2018-01-12T04:53:21.217Z,146.87
2018-01-12T04:55:49.481Z,136.60
2018-01-12T04:58:18.768Z,138.03
2018-01-12T05:00:46.995Z,153.40
2018-01-12T05:03:15.268Z,152.70
2018-01-12T05:05:43.544Z,183.90
2018-01-12T05:08:11.928Z,154.10
2018-01-12T05:10:40.188Z,150.23
2018-01-12T05:13:08.536Z,132.53
2018-01-12T05:15:37.689Z,235.47
2018-01-12T05:18:05.990Z,139.40
2018-01-12T05:20:34.290Z,117.23
2018-01-12T05:23:03.316Z,152.13
2018-01-12T05:25:31.588Z,188.23
2018-01-12T05:27:59.856Z,127.70
2018-01-12T05:30:28.126Z,196.07
2018-01-12T05:32:56.386Z,144.37
2018-01-12T05:35:24.735Z,137.13
2018-01-12T05:37:53.043Z,125.30
2018-01-12T05:40:21.303Z,115.37
2018-01-12T05:42:49.561Z,149.47
2018-01-12T05:45:18.607Z,179.98
2018-01-12T05:47:46.902Z,108.73
2018-01-12T05:50:15.183Z,118.23
2018-01-12T05:52:43.441Z,136.33
2018-01-12T05:55:11.708Z,106.80
2018-01-12T05:57:39.990Z,102.00
2018-01-12T06:00:08.243Z,102.60
2018-01-12T06:02:48.475Z,86.93
2018-01-12T06:05:28.475Z,83.63
2018-01-12T06:07:56.715Z,77.63
2018-01-12T06:10:24.986Z,76.33
2018-01-12T06:12:53.271Z,78.80
2018-01-12T06:15:21.542Z,71.20
2018-01-12T06:17:49.860Z,70.17
2018-01-12T06:20:18.401Z,77.87
2018-01-12T06:22:47.509Z,82.17
2018-01-12T06:25:15.785Z,74.10
2018-01-12T06:27:44.039Z,75.10
2018-01-12T06:30:12.306Z,84.70
2018-01-12T06:32:40.672Z,81.77
2018-01-12T06:35:09.677Z,87.27
2018-01-12T06:37:37.954Z,96.23
2018-01-12T06:40:06.228Z,92.20
2018-01-12T06:42:34.520Z,87.30
2018-01-12T06:45:02.816Z,91.17
2018-01-12T06:47:31.855Z,103.77
2018-01-12T06:50:00.914Z,86.20
2018-01-12T06:52:29.192Z,93.77
2018-01-12T06:54:57.441Z,93.20
2018-01-12T06:57:25.706Z,92.13
2018-01-12T06:59:54.871Z,85.43
2018-01-12T07:02:23.963Z,119.37
2018-01-12T07:04:52.986Z,89.23
2018-01-12T07:07:21.258Z,96.53
2018-01-12T07:09:49.544Z,102.37
2018-01-12T07:12:17.819Z,104.33
2018-01-12T07:14:46.067Z,79.50
2018-01-12T07:17:14.506Z,84.73
2018-01-12T07:19:42.788Z,98.57
2018-01-12T07:22:26.584Z,85.50
2018-01-12T07:24:54.821Z,89.80
2018-01-12T07:27:23.850Z,91.43
2018-01-12T07:29:52.228Z,99.37
2018-01-12T07:32:21.411Z,84.03
2018-01-12T07:34:49.691Z,85.23
2018-01-12T07:37:17.946Z,80.40
2018-01-12T07:39:46.300Z,78.17
2018-01-12T07:42:14.540Z,95.27
2018-01-12T07:44:42.821Z,77.27
2018-01-12T07:47:11.082Z,70.83
2018-01-12T07:49:39.334Z,79.43
2018-01-12T07:52:07.603Z,79.57
2018-01-12T07:54:35.871Z,71.77
2018-01-12T07:57:04.894Z,73.07
2018-01-12T07:59:33.137Z,73.63
2018-01-12T08:02:01.445Z,67.37
2018-01-12T08:04:29.678Z,76.37
2018-01-12T08:06:58.694Z,71.37
2018-01-12T08:09:27.071Z,68.77
2018-01-12T08:11:55.352Z,77.43
2018-01-12T08:14:23.599Z,84.80
2018-01-12T08:16:52.627Z,72.10
2018-01-12T08:19:20.879Z,74.77
2018-01-12T08:21:51.012Z,72.93
2018-01-12T08:24:20.100Z,71.73
2018-01-12T08:26:48.546Z,80.03
2018-01-12T08:29:17.560Z,86.63
2018-01-12T08:31:45.813Z,86.30
2018-01-12T08:34:14.843Z,85.87
2018-01-12T08:36:43.110Z,84.70
2018-01-12T08:39:11.441Z,91.73
2018-01-12T08:41:39.690Z,95.63
2018-01-12T08:44:07.963Z,96.27
2018-01-12T08:46:36.230Z,87.30
2018-01-12T08:49:04.525Z,79.13
2018-01-12T08:51:32.818Z,96.40
2018-01-12T08:54:01.400Z,90.93
2018-01-12T08:56:29.732Z,108.77
2018-01-12T08:58:58.024Z,99.57
2018-01-12T09:01:26.288Z,94.07
2018-01-12T09:03:54.537Z,90.90
2018-01-12T09:06:23.994Z,91.23
2018-01-12T09:08:52.332Z,94.70
2018-01-12T09:11:20.601Z,94.63
2018-01-12T09:13:55.576Z,86.60
2018-01-12T09:16:26.912Z,91.70
2018-01-12T09:19:06.981Z,106.70
2018-01-12T09:21:36.209Z,90.97
2018-01-12T09:24:16.582Z,102.03
2018-01-12T09:26:45.213Z,94.47
2018-01-12T09:29:13.454Z,81.77
2018-01-12T09:31:42.522Z,79.80
2018-01-12T09:34:22.556Z,79.23
2018-01-12T09:36:50.791Z,82.33
2018-01-12T09:39:31.027Z,82.07
2018-01-12T09:41:59.299Z,87.63
2018-01-12T09:44:27.546Z,80.20
2018-01-12T09:47:07.707Z,75.93
2018-01-12T09:49:41.934Z,74.20
2018-01-12T09:52:10.201Z,78.63
2018-01-12T09:54:38.528Z,79.13
2018-01-12T09:57:08.294Z,76.07
2018-01-12T09:59:43.652Z,84.67
2018-01-12T10:02:11.887Z,90.53
2018-01-12T10:04:41.094Z,86.93
2018-01-12T10:07:17.190Z,78.47
2018-01-12T10:09:47.310Z,78.30
2018-01-12T10:12:15.542Z,84.30
2018-01-12T10:14:43.803Z,80.50
2018-01-12T10:17:12.054Z,83.10
2018-01-12T10:22:38.488Z,81.30
2018-01-12T10:25:06.867Z,77.57
2018-01-12T10:27:35.151Z,88.27
2018-01-12T10:30:09.393Z,81.13
2018-01-12T10:32:43.509Z,75.70
2018-01-12T10:35:18.497Z,86.67
2018-01-12T10:37:46.727Z,84.33
2018-01-12T10:43:21.692Z,98.43
2018-01-12T10:46:02.012Z,84.90
2018-01-12T10:48:39.007Z,87.20
2018-01-12T10:51:15.979Z,87.50
2018-01-12T10:53:44.409Z,81.73
2018-01-12T10:56:12.743Z,96.13
2018-01-12T10:58:41.009Z,87.40
2018-01-12T11:01:10.071Z,81.03
2018-01-12T11:03:38.333Z,81.57
2018-01-12T11:06:06.751Z,80.50
2018-01-12T11:08:35.861Z,75.20
2018-01-12T11:11:04.133Z,69.67
2018-01-12T11:13:32.446Z,75.00
2018-01-12T11:16:00.738Z,72.70
2018-01-12T11:18:29.003Z,71.33
2018-01-12T11:20:57.314Z,77.50
2018-01-12T11:23:25.691Z,69.13
2018-01-12T11:25:54.089Z,75.40
2018-01-12T11:28:22.374Z,71.53
2018-01-12T11:30:50.647Z,81.43
2018-01-12T11:33:18.923Z,76.57
2018-01-12T11:35:47.170Z,79.83
2018-01-12T11:38:16.197Z,77.37
2018-01-12T11:40:44.438Z,75.73
2018-01-12T11:43:14.382Z,79.57
2018-01-12T11:45:42.731Z,82.33
2018-01-12T11:48:10.990Z,86.27
2018-01-12T11:50:39.243Z,85.43
2018-01-12T11:53:07.517Z,91.47
2018-01-12T11:55:35.799Z,74.67
2018-01-12T11:58:04.097Z,83.17
2018-01-12T12:00:32.396Z,83.53
2018-01-12T12:03:00.695Z,90.50
2018-01-12T12:05:30.529Z,82.63
2018-01-12T12:07:58.824Z,82.20
2018-01-12T12:10:27.094Z,89.37
2018-01-12T12:12:55.399Z,76.73
2018-01-12T12:15:23.659Z,83.07
2018-01-12T12:17:52.712Z,84.47
2018-01-12T12:20:20.976Z,82.43
2018-01-12T12:22:49.253Z,88.80
2018-01-12T12:25:17.500Z,87.60
2018-01-12T12:27:45.752Z,84.87
2018-01-12T12:30:14.778Z,85.27
2018-01-12T12:32:43.061Z,83.73
2018-01-12T12:35:11.322Z,78.77
2018-01-12T12:37:39.651Z,95.30
2018-01-12T12:40:07.991Z,86.90
2018-01-12T12:42:36.275Z,87.53
2018-01-12T12:45:04.542Z,88.10
2018-01-12T12:47:32.828Z,94.93
2018-01-12T12:50:01.084Z,92.17
2018-01-12T12:52:29.342Z,94.67
2018-01-12T12:54:57.696Z,94.07
2018-01-12T12:57:26.063Z,100.57
2018-01-12T12:59:55.081Z,103.10
2018-01-12T13:02:23.374Z,99.67
2018-01-12T13:04:52.840Z,102.13
2018-01-12T13:07:21.116Z,113.57
2018-01-12T13:09:50.165Z,109.07
2018-01-12T13:12:18.445Z,111.53
2018-01-12T13:14:46.738Z,112.60
2018-01-12T13:17:14.986Z,115.83
2018-01-12T13:19:43.297Z,120.07
2018-01-12T13:22:11.638Z,129.17
2018-01-12T13:24:39.904Z,134.93
2018-01-12T13:27:08.189Z,131.63
2018-01-12T13:29:36.458Z,127.60
2018-01-12T13:32:05.007Z,126.53
2018-01-12T13:34:34.039Z,131.70
2018-01-12T13:37:02.309Z,119.13
2018-01-12T13:39:30.625Z,138.60
2018-01-12T13:41:59.023Z,142.77
2018-01-12T13:44:27.299Z,137.63
2018-01-12T13:46:56.386Z,138.87
2018-01-12T13:49:24.655Z,140.17
2018-01-12T13:51:52.988Z,151.10
2018-01-12T13:54:21.261Z,155.13
2018-01-12T13:56:49.540Z,176.27
2018-01-12T13:59:17.804Z,164.60
2018-01-12T14:01:46.129Z,179.23
2018-01-12T14:04:14.385Z,169.77
2018-01-12T14:06:42.760Z,198.77
2018-01-12T14:09:11.041Z,224.67
2018-01-12T14:11:39.355Z,235.77
2018-01-12T14:14:07.631Z,225.77
2018-01-12T14:16:36.190Z,237.27
2018-01-12T14:19:04.458Z,216.27
2018-01-12T14:21:32.732Z,199.20
2018-01-12T14:24:01.779Z,201.97
2018-01-12T14:26:30.083Z,196.07
2018-01-12T14:28:58.424Z,190.20
2018-01-12T14:31:26.689Z,188.67
2018-01-12T14:33:54.987Z,213.83
2018-01-12T14:36:23.305Z,201.17
2018-01-12T14:38:51.579Z,211.73
2018-01-12T14:41:19.853Z,217.87
2018-01-12T14:43:48.132Z,229.27
2018-01-12T14:46:17.897Z,219.90
2018-01-12T14:48:46.184Z,241.60
2018-01-12T14:51:14.449Z,225.30
2018-01-12T14:53:42.742Z,224.10
2018-01-12T14:56:11.161Z,224.00
2018-01-12T14:58:39.446Z,227.77
2018-01-12T15:01:07.726Z,242.07
2018-01-12T15:03:36.051Z,245.47
2018-01-12T15:06:04.324Z,230.47
2018-01-12T15:08:34.123Z,234.67
2018-01-12T15:11:02.423Z,235.10
2018-01-12T15:13:30.711Z,221.53
2018-01-12T15:15:59.054Z,194.03
2018-01-12T15:18:27.300Z,202.90
2018-01-12T15:20:55.630Z,193.30
2018-01-12T15:23:23.901Z,187.47
2018-01-12T15:25:52.175Z,204.33
2018-01-12T15:28:20.612Z,199.17
2018-01-12T15:30:48.849Z,206.43
2018-01-12T15:33:17.146Z,234.23
2018-01-12T15:35:45.414Z,229.77
2018-01-12T15:38:14.461Z,217.37
2018-01-12T15:40:42.724Z,209.80
2018-01-12T15:43:11.062Z,193.87
2018-01-12T15:45:39.359Z,190.80
2018-01-12T15:48:07.659Z,194.30
2018-01-12T15:50:35.947Z,187.23
2018-01-12T15:53:04.235Z,174.57
2018-01-12T15:55:33.334Z,185.67
2018-01-12T15:58:02.427Z,176.60
2018-01-12T16:00:30.701Z,192.10
2018-01-12T16:02:59.040Z,187.43
2018-01-12T16:05:28.276Z,201.83
2018-01-12T16:07:57.324Z,202.80
2018-01-12T16:10:25.610Z,211.70
2018-01-12T16:12:53.896Z,194.73
2018-01-12T16:15:22.164Z,186.57
2018-01-12T16:17:50.448Z,185.70
2018-01-12T16:20:18.695Z,183.63
2018-01-12T16:22:46.984Z,193.57
2018-01-12T16:25:15.257Z,189.37
2018-01-12T16:27:43.560Z,199.27
2018-01-12T16:30:12.631Z,186.73
2018-01-12T16:32:40.923Z,153.90
2018-01-12T16:35:09.322Z,164.93
2018-01-12T16:37:37.570Z,175.57
2018-01-12T16:40:05.855Z,165.37
2018-01-12T16:42:34.901Z,168.77
2018-01-12T16:45:03.203Z,156.67
2018-01-12T16:47:31.484Z,154.17
2018-01-12T16:49:59.878Z,156.43
2018-01-12T16:52:28.152Z,141.53
2018-01-12T16:54:57.231Z,142.60
2018-01-12T16:57:26.271Z,154.00
2018-01-12T16:59:55.427Z,150.53
2018-01-12T17:02:23.741Z,143.13
2018-01-12T17:04:52.778Z,141.43
2018-01-12T17:07:21.083Z,145.97
2018-01-12T17:09:49.326Z,141.80
2018-01-12T17:12:17.618Z,159.23
2018-01-12T17:14:47.392Z,143.73
2018-01-12T17:17:15.679Z,173.63
2018-01-12T17:19:44.006Z,178.77
2018-01-12T17:22:13.055Z,189.03
2018-01-12T17:24:42.119Z,166.50
2018-01-12T17:27:10.404Z,176.73
2018-01-12T17:29:38.679Z,143.83
2018-01-12T17:32:07.001Z,132.43
2018-01-12T17:34:35.339Z,136.87
2018-01-12T17:37:03.614Z,134.07
2018-01-12T17:39:31.946Z,124.57
2018-01-12T17:42:00.237Z,125.73
2018-01-12T17:44:28.533Z,114.73
2018-01-12T17:46:56.805Z,114.70
2018-01-12T17:49:25.093Z,116.20
2018-01-12T17:51:53.355Z,112.20
2018-01-12T17:54:21.799Z,115.57
2018-01-12T17:56:50.064Z,114.03
2018-01-12T17:59:19.087Z,105.43
2018-01-12T18:01:47.361Z,116.67
2018-01-12T18:04:15.634Z,109.53
2018-01-12T18:06:43.901Z,111.77
2018-01-12T18:09:12.935Z,103.77
2018-01-12T18:11:41.370Z,105.77
2018-01-12T18:14:09.648Z,105.53
2018-01-12T18:16:37.926Z,102.20
2018-01-12T18:19:06.197Z,100.57
2018-01-12T18:21:34.491Z,110.77
2018-01-12T18:24:02.732Z,111.30
2018-01-12T18:26:31.791Z,110.97
2018-01-12T18:29:00.058Z,109.33
2018-01-12T18:31:28.361Z,115.10
2018-01-12T18:33:57.412Z,114.07
2018-01-12T18:36:25.745Z,115.87
2018-01-12T18:38:53.999Z,105.23
2018-01-12T18:41:22.311Z,112.83
2018-01-12T18:43:50.607Z,114.17
2018-01-12T18:46:18.930Z,120.80
2018-01-12T18:48:48.084Z,108.03
2018-01-12T18:51:16.368Z,116.00
2018-01-12T18:53:44.675Z,108.67
2018-01-12T18:56:12.924Z,110.83
2018-01-12T18:58:41.216Z,108.07
2018-01-12T19:01:09.548Z,113.00
2018-01-12T19:03:37.820Z,112.33
2018-01-12T19:06:06.839Z,106.60
2018-01-12T19:08:35.119Z,117.67
2018-01-12T19:11:03.409Z,119.77
2018-01-12T19:13:31.702Z,106.07
2018-01-12T19:16:00.788Z,107.83
2018-01-12T19:18:29.089Z,112.03
2018-01-12T19:20:58.139Z,107.87
2018-01-12T19:23:26.386Z,108.57
2018-01-12T19:25:54.662Z,105.07
2018-01-12T19:28:22.908Z,100.73
2018-01-12T19:30:52.017Z,105.27
2018-01-12T19:33:20.278Z,111.63
2018-01-12T19:35:48.549Z,111.77
2018-01-12T19:38:16.818Z,101.70
2018-01-12T19:40:45.895Z,106.47
2018-01-12T19:43:14.140Z,94.87
2018-01-12T19:45:42.428Z,97.03
2018-01-12T19:48:10.735Z,101.57
2018-01-12T19:50:39.036Z,101.83
2018-01-12T19:53:07.314Z,101.60
2018-01-12T19:55:35.566Z,103.27
2018-01-12T19:58:04.751Z,98.90
2018-01-12T20:00:33.004Z,95.03
2018-01-12T20:03:01.322Z,105.40
2018-01-12T20:05:29.590Z,95.50
2018-01-12T20:07:58.656Z,101.20
2018-01-12T20:10:26.922Z,99.20
2018-01-12T20:12:55.189Z,98.83
2018-01-12T20:15:23.477Z,110.70
2018-01-12T20:17:51.914Z,111.20
2018-01-12T20:20:20.196Z,106.73
2018-01-12T20:22:48.486Z,112.20
2018-01-12T20:25:16.762Z,119.27
2018-01-12T20:27:45.051Z,124.77
2018-01-12T20:30:13.451Z,128.30
2018-01-12T20:32:42.517Z,135.23
2018-01-12T20:35:10.915Z,116.03
2018-01-12T20:37:39.191Z,129.60
2018-01-12T20:40:08.286Z,129.57
2018-01-12T20:42:37.324Z,136.10
2018-01-12T20:45:05.615Z,136.40
2018-01-12T20:47:33.901Z,129.13
2018-01-12T20:50:02.208Z,134.83
2018-01-12T20:52:31.256Z,125.97
2018-01-12T20:54:59.587Z,137.60
2018-01-12T20:57:27.898Z,122.13
2018-01-12T20:59:56.164Z,130.20
2018-01-12T21:02:24.442Z,117.27
2018-01-12T21:04:52.711Z,116.17
2018-01-12T21:07:21.009Z,117.03
2018-01-12T21:09:49.279Z,112.50
2018-01-12T21:12:17.680Z,113.90
2018-01-12T21:14:45.985Z,111.67
2018-01-12T21:17:15.031Z,124.90
2018-01-12T21:19:43.375Z,126.37
2018-01-12T21:22:11.677Z,124.53
2018-01-12T21:24:39.939Z,121.63
2018-01-12T21:27:09.139Z,124.50
2018-01-12T21:29:37.479Z,131.90
2018-01-12T21:32:05.738Z,125.03
2018-01-12T21:34:34.807Z,113.43
2018-01-12T21:37:03.066Z,122.60
2018-01-12T21:39:31.350Z,124.50
2018-01-12T21:41:59.643Z,126.73
2018-01-12T21:44:27.972Z,117.70
2018-01-12T21:46:56.204Z,119.87
2018-01-12T21:49:24.475Z,114.17
2018-01-12T21:51:52.881Z,114.23
2018-01-12T21:54:21.158Z,109.07
2018-01-12T21:56:49.619Z,124.50
2018-01-12T21:59:18.674Z,123.57
2018-01-12T22:01:47.047Z,112.53
2018-01-12T22:04:15.337Z,109.93
2018-01-12T22:06:43.660Z,120.70
2018-01-12T22:09:12.095Z,129.07
2018-01-12T22:11:40.374Z,126.53
2018-01-12T22:14:08.645Z,131.27
2018-01-12T22:16:37.716Z,127.57
2018-01-12T22:19:06.107Z,114.47
2018-01-12T22:21:34.399Z,123.03
2018-01-12T22:24:02.698Z,126.77
2018-01-12T22:26:31.745Z,115.13
2018-01-12T22:29:00.159Z,123.27
2018-01-12T22:31:28.438Z,126.40
2018-01-12T22:33:56.676Z,124.53
2018-01-12T22:36:24.980Z,115.67
2018-01-12T22:38:55.192Z,122.43
2018-01-12T22:41:23.470Z,122.33
2018-01-12T22:43:51.744Z,122.40
2018-01-12T22:46:20.052Z,128.67
2018-01-12T22:48:48.370Z,143.00
2018-01-12T22:51:17.483Z,134.97
2018-01-12T22:53:45.907Z,132.77
2018-01-12T22:56:14.184Z,137.30
2018-01-12T22:58:43.323Z,143.93
2018-01-12T23:01:11.660Z,159.43
2018-01-12T23:03:39.938Z,147.43
2018-01-12T23:06:08.398Z,152.40
2018-01-12T23:08:36.696Z,148.70
2018-01-12T23:11:05.043Z,157.37
2018-01-12T23:13:33.394Z,150.73
2018-01-12T23:16:01.643Z,144.33
2018-01-12T23:18:29.902Z,150.07
2018-01-12T23:20:58.217Z,148.70
2018-01-12T23:23:26.525Z,141.60
2018-01-12T23:25:55.577Z,154.30
2018-01-12T23:28:23.979Z,160.97
2018-01-12T23:30:53.031Z,146.33
2018-01-12T23:33:21.284Z,156.97
2018-01-12T23:35:49.581Z,171.40
2018-01-12T23:38:17.841Z,162.30
2018-01-12T23:40:46.098Z,174.57
2018-01-12T23:43:14.360Z,180.60
2018-01-12T23:45:43.395Z,179.37
2018-01-12T23:48:11.678Z,186.53
2018-01-12T23:50:40.032Z,185.70
2018-01-12T23:53:08.331Z,186.03
2018-01-12T23:55:36.587Z,194.63
2018-01-12T23:58:04.854Z,188.30
